Time;durP1;ratioP1;P1;durP2;ratioP2;P2;SDS_P1;SDS_P2;PMS_P1;PMS_P2;Temp;Humidity;BMP_temperature;BMP_pressure;BME280_temperature;BME280_humidity;BME280_pressure;Samples;Min_cycle;Max_cycle;Signal;HPM_P1;HPM_P2
2024/01/25 00:01:51;;;;;;;35.78;6.82;;;;;;;5.95;85.04;99513.63;5064767;28;20482;-74
2024/01/25 00:04:16;;;;;;;29.02;7.68;;;;;;;5.91;85.40;99516.88;5052321;28;20047;-74
2024/01/25 00:06:41;;;;;;;29.20;8.38;;;;;;;5.92;84.56;99521.16;5066193;28;20036;-74
2024/01/25 00:09:07;;;;;;;35.03;10.65;;;;;;;5.88;85.61;99522.56;5066014;28;20025;-74
2024/01/25 00:11:32;;;;;;;43.30;8.23;;;;;;;5.76;85.85;99517.03;5066835;28;20032;-74
2024/01/25 00:13:58;;;;;;;40.47;7.95;;;;;;;5.92;85.70;99519.31;5068198;28;20032;-74
2024/01/25 00:16:23;;;;;;;35.15;6.93;;;;;;;5.98;85.70;99530.97;5064955;28;20494;-74
2024/01/25 00:18:48;;;;;;;30.90;7.85;;;;;;;5.94;85.41;99524.44;5067407;28;20107;-75
2024/01/25 00:21:14;;;;;;;33.75;8.00;;;;;;;5.95;85.69;99529.53;5063812;28;20055;-74
2024/01/25 00:23:39;;;;;;;31.35;8.52;;;;;;;5.96;85.74;99535.66;5072663;28;20493;-74
2024/01/25 00:26:04;;;;;;;34.45;7.25;;;;;;;5.90;86.13;99531.97;5065317;28;20063;-75
2024/01/25 00:28:30;;;;;;;29.25;6.82;;;;;;;5.90;86.11;99534.59;5067426;28;20111;-74
2024/01/25 00:30:55;;;;;;;38.25;8.70;;;;;;;5.97;85.16;99534.63;5045206;28;20036;-74
2024/01/25 00:33:21;;;;;;;23.65;5.38;;;;;;;5.91;85.53;99535.44;5060430;28;20029;-74
2024/01/25 00:35:48;;;;;;;43.88;7.82;;;;;;;5.89;85.65;99537.47;5068299;28;20427;-74
2024/01/25 00:38:13;;;;;;;33.60;7.22;;;;;;;5.88;85.98;99543.75;5061937;28;20040;-75
2024/01/25 00:40:39;;;;;;;20.65;5.72;;;;;;;5.83;85.16;99531.09;5068843;28;20394;-74
2024/01/25 00:43:05;;;;;;;28.40;7.47;;;;;;;5.88;85.23;99543.75;5072924;28;20067;-74
2024/01/25 00:45:31;;;;;;;35.35;7.15;;;;;;;5.92;85.24;99542.34;5049665;28;20051;-74
2024/01/25 00:47:57;;;;;;;29.38;6.03;;;;;;;5.85;85.82;99546.84;5071908;28;20055;-74
2024/01/25 00:50:23;;;;;;;32.80;6.95;;;;;;;5.92;86.28;99534.41;5061153;28;20504;-74
2024/01/25 00:52:50;;;;;;;39.90;8.43;;;;;;;5.89;85.07;99540.94;5072625;28;20028;-74
2024/01/25 00:55:16;;;;;;;39.08;7.80;;;;;;;5.97;85.71;99550.50;5060740;28;20108;-74
2024/01/25 00:57:41;;;;;;;43.42;9.75;;;;;;;5.90;85.44;99547.84;5064409;28;20572;-74
2024/01/25 01:00:08;;;;;;;34.38;7.38;;;;;;;5.95;85.56;99547.25;5059420;28;20032;-74
2024/01/25 01:02:38;;;;;;;28.80;7.07;;;;;;;5.88;85.61;99541.94;5066999;28;20721;-74
2024/01/25 01:05:04;;;;;;;34.08;7.28;;;;;;;5.89;85.73;99543.59;5061622;28;20143;-74
2024/01/25 01:07:30;;;;;;;31.33;6.60;;;;;;;5.99;86.09;99546.66;5063329;28;20514;-74
2024/01/25 01:09:55;;;;;;;43.70;7.22;;;;;;;5.84;85.44;99548.66;5056580;28;20141;-75
2024/01/25 01:12:20;;;;;;;38.13;6.82;;;;;;;5.89;85.33;99553.34;5057836;28;20056;-74
2024/01/25 01:14:46;;;;;;;27.75;6.55;;;;;;;5.81;85.26;99532.34;5057086;28;20385;-75
2024/01/25 01:17:11;;;;;;;29.45;5.85;;;;;;;5.85;85.65;99546.84;5041712;28;20040;-74
2024/01/25 01:19:36;;;;;;;29.13;7.20;;;;;;;5.86;85.63;99556.41;5060141;28;20067;-74
2024/01/25 01:22:02;;;;;;;34.55;6.90;;;;;;;5.81;86.71;99540.28;5059435;28;20059;-74
2024/01/25 01:24:27;;;;;;;36.97;8.30;;;;;;;5.90;85.06;99545.19;5067579;28;20036;-74
2024/01/25 01:26:53;;;;;;;30.00;6.53;;;;;;;5.86;85.05;99537.84;5066229;28;20115;-74
2024/01/25 01:29:18;;;;;;;27.52;7.65;;;;;;;5.82;86.26;99540.06;5044446;28;20095;-74
2024/01/25 01:31:44;;;;;;;31.85;7.57;;;;;;;5.78;86.53;99535.38;5061851;28;20064;-74
2024/01/25 01:34:09;;;;;;;41.10;9.25;;;;;;;5.80;86.16;99536.00;5077522;28;20036;-74
2024/01/25 01:36:34;;;;;;;35.58;7.38;;;;;;;5.76;85.93;99529.47;5068078;28;20035;-74
2024/01/25 01:39:00;;;;;;;37.05;9.05;;;;;;;5.81;85.69;99529.69;5059135;28;20223;-74
2024/01/25 01:41:25;;;;;;;25.73;8.68;;;;;;;5.75;85.89;99539.22;5059207;28;20029;-74
2024/01/25 01:43:54;;;;;;;25.35;5.82;;;;;;;5.81;86.53;99545.56;5064027;28;20020;-74
2024/01/25 01:46:34;;;;;;;31.42;7.55;;;;;;;5.83;85.82;99539.03;5060411;28;20035;-75
2024/01/25 01:48:59;;;;;;;28.13;7.40;;;;;;;5.83;86.75;99540.91;5054430;28;20376;-74
2024/01/25 01:51:24;;;;;;;28.38;6.90;;;;;;;5.77;86.54;99534.53;5069038;28;20036;-75
2024/01/25 01:53:50;;;;;;;39.55;8.93;;;;;;;5.82;85.64;99531.31;5058401;28;20163;-75
2024/01/25 01:56:15;;;;;;;32.70;8.82;;;;;;;5.74;86.67;99531.50;5064046;28;20048;-75
2024/01/25 01:58:41;;;;;;;42.15;7.90;;;;;;;5.75;86.00;99533.94;5057286;28;20036;-75
2024/01/25 02:01:07;;;;;;;28.58;7.95;;;;;;;5.70;85.92;99527.63;5068619;28;20033;-75
2024/01/25 02:03:32;;;;;;;37.70;7.65;;;;;;;5.68;86.42;99535.75;5061519;28;20040;-74
2024/01/25 02:06:02;;;;;;;42.88;8.30;;;;;;;5.60;86.63;99540.41;5062245;28;20036;-75
2024/01/25 02:08:28;;;;;;;24.50;6.72;;;;;;;5.66;85.65;99532.47;5064634;28;20077;-74
2024/01/25 02:10:54;;;;;;;24.27;6.13;;;;;;;5.67;85.89;99525.38;5055472;28;20436;-74
2024/01/25 02:13:20;;;;;;;33.58;9.13;;;;;;;5.56;86.47;99526.75;5058161;28;20031;-74
2024/01/25 02:15:46;;;;;;;34.60;7.80;;;;;;;5.56;86.32;99513.53;5065239;28;20028;-74
2024/01/25 02:18:11;;;;;;;32.38;7.97;;;;;;;5.66;86.00;99526.38;5061767;28;20024;-74
2024/01/25 02:20:36;;;;;;;32.38;6.90;;;;;;;5.59;86.45;99533.50;5070431;28;20021;-75
2024/01/25 02:23:02;;;;;;;44.40;9.77;;;;;;;5.52;86.78;99536.13;5068388;28;21292;-75
2024/01/25 02:25:27;;;;;;;37.50;7.45;;;;;;;5.59;86.25;99539.59;5070228;28;20493;-75
2024/01/25 02:27:52;;;;;;;40.03;9.18;;;;;;;5.56;86.66;99547.94;5064192;28;20032;-74
2024/01/25 02:30:18;;;;;;;34.33;7.65;;;;;;;5.53;86.43;99548.34;5076125;28;20082;-74
2024/01/25 02:32:44;;;;;;;30.77;7.68;;;;;;;5.66;85.84;99569.56;5058358;28;20032;-74
2024/01/25 02:35:09;;;;;;;37.78;8.10;;;;;;;5.59;86.80;99578.50;5067517;28;20065;-74
2024/01/25 02:37:34;;;;;;;33.30;7.78;;;;;;;5.46;86.65;99589.84;5067816;28;20429;-74
2024/01/25 02:40:00;;;;;;;30.45;7.93;;;;;;;5.55;87.19;99587.88;5072931;28;20045;-74
2024/01/25 02:42:25;;;;;;;36.33;8.40;;;;;;;5.50;87.11;99607.00;5071389;28;20025;-74
2024/01/25 02:44:50;;;;;;;35.00;8.07;;;;;;;5.48;87.04;99603.72;5066306;28;20028;-74
2024/01/25 02:47:16;;;;;;;37.78;7.65;;;;;;;5.38;86.75;99602.44;5063877;28;20554;-75
2024/01/25 02:49:41;;;;;;;37.35;6.70;;;;;;;5.52;87.38;99594.38;5069045;28;20040;-74
2024/01/25 02:52:06;;;;;;;41.38;7.32;;;;;;;5.29;87.05;99615.84;5073770;28;20033;-74
2024/01/25 02:54:36;;;;;;;37.72;8.20;;;;;;;5.48;87.62;99618.78;5061681;28;20126;-75
2024/01/25 02:57:01;;;;;;;32.88;8.75;;;;;;;5.61;87.30;99635.56;5063464;28;20119;-74
2024/01/25 02:59:27;;;;;;;41.85;9.65;;;;;;;5.51;86.88;99631.63;5074879;28;20162;-74
2024/01/25 03:01:54;;;;;;;23.23;5.70;;;;;;;5.64;87.60;99637.78;5077767;28;20060;-74
2024/01/25 03:04:19;;;;;;;40.95;9.38;;;;;;;5.61;87.30;99634.72;5063476;28;20036;-74
2024/01/25 03:06:45;;;;;;;30.00;7.82;;;;;;;5.79;86.64;99627.88;5079081;28;20032;-74
2024/01/25 03:09:10;;;;;;;35.00;7.20;;;;;;;5.74;86.41;99619.72;5088424;28;20047;-74
2024/01/25 03:11:35;;;;;;;37.63;9.15;;;;;;;5.71;87.06;99625.41;5091271;28;20071;-74
2024/01/25 03:14:01;;;;;;;26.27;7.53;;;;;;;5.71;86.77;99616.63;5086206;28;20078;-74
2024/01/25 03:16:26;;;;;;;23.92;6.93;;;;;;;5.57;86.60;99612.31;5074887;28;20453;-74
2024/01/25 03:18:52;;;;;;;27.30;7.43;;;;;;;5.50;86.58;99632.66;5068786;28;20032;-74
2024/01/25 03:21:17;;;;;;;29.95;8.40;;;;;;;5.64;86.95;99631.66;5059761;28;20477;-74
2024/01/25 03:23:42;;;;;;;33.88;8.75;;;;;;;5.62;87.21;99658.34;5061174;28;20090;-74
2024/01/25 03:26:08;;;;;;;29.67;4.90;;;;;;;5.59;87.01;99668.53;5071139;28;20029;-74
2024/01/25 03:28:37;;;;;;;40.33;9.80;;;;;;;5.52;86.76;99659.75;5067046;28;20182;-74
2024/01/25 03:31:02;;;;;;;33.97;7.03;;;;;;;5.58;86.98;99641.22;5069858;28;20043;-74
2024/01/25 03:33:28;;;;;;;30.30;6.47;;;;;;;5.57;86.46;99644.09;5073598;28;20036;-74
2024/01/25 03:35:54;;;;;;;22.00;5.63;;;;;;;5.54;86.59;99640.00;5070212;28;20596;-74
2024/01/25 03:38:19;;;;;;;31.27;7.97;;;;;;;5.61;86.58;99632.91;5068474;28;20048;-75
2024/01/25 03:40:45;;;;;;;33.50;8.48;;;;;;;5.50;86.04;99632.66;5078232;28;20029;-74
2024/01/25 03:43:10;;;;;;;25.98;6.88;;;;;;;5.58;86.47;99638.59;5065528;28;20474;-74
2024/01/25 03:45:35;;;;;;;26.80;7.95;;;;;;;5.54;86.46;99620.63;5068804;28;20430;-74
2024/01/25 03:48:01;;;;;;;23.98;4.50;;;;;;;5.49;85.90;99631.81;5066407;28;20060;-75
2024/01/25 03:50:27;;;;;;;42.50;9.13;;;;;;;5.45;87.22;99627.94;5070869;28;20036;-74
2024/01/25 03:52:52;;;;;;;28.75;6.75;;;;;;;5.52;86.78;99620.84;5078346;28;20024;-75
2024/01/25 03:55:17;;;;;;;37.05;9.05;;;;;;;5.53;86.45;99632.22;5071952;28;20062;-75
2024/01/25 03:57:44;;;;;;;32.70;6.88;;;;;;;5.46;86.92;99639.34;5075892;28;20115;-75
2024/01/25 04:00:11;;;;;;;27.83;5.80;;;;;;;5.44;86.31;99652.75;5068901;28;20056;-74
2024/01/25 04:02:36;;;;;;;35.72;8.10;;;;;;;5.44;86.68;99638.72;5067552;28;20051;-74
2024/01/25 04:05:02;;;;;;;38.40;9.25;;;;;;;5.37;86.99;99648.47;5069679;28;20434;-74
2024/01/25 04:07:27;;;;;;;22.17;6.80;;;;;;;5.47;86.14;99654.19;5067901;28;20060;-74
2024/01/25 04:09:53;;;;;;;30.80;6.60;;;;;;;5.45;86.55;99654.41;5062867;28;20037;-75
2024/01/25 04:12:18;;;;;;;28.75;6.90;;;;;;;5.57;86.31;99650.19;5065933;28;20028;-75
2024/01/25 04:14:44;;;;;;;35.30;6.68;;;;;;;5.48;86.39;99661.97;5072780;28;20029;-75
2024/01/25 04:17:09;;;;;;;35.22;6.82;;;;;;;5.54;86.24;99663.81;5066786;28;20509;-75
2024/01/25 04:19:35;;;;;;;32.10;8.02;;;;;;;5.45;86.87;99669.47;5077761;28;20036;-75
2024/01/25 04:22:01;;;;;;;16.65;4.18;;;;;;;5.46;86.10;99653.38;5082572;28;20481;-75
2024/01/25 04:24:26;;;;;;;28.13;6.68;;;;;;;5.44;86.30;99654.63;5075705;28;20036;-75
2024/01/25 04:26:52;;;;;;;30.45;7.65;;;;;;;5.40;86.58;99643.59;5068564;28;20060;-75
2024/01/25 04:29:17;;;;;;;22.40;6.85;;;;;;;5.38;86.62;99656.19;5071542;28;20031;-74
2024/01/25 04:31:44;;;;;;;23.83;6.93;;;;;;;5.30;86.31;99656.38;5066963;28;20074;-74
2024/01/25 04:34:10;;;;;;;18.17;6.07;;;;;;;5.30;85.95;99646.59;5069988;28;20075;-74
2024/01/25 04:36:36;;;;;;;28.60;6.65;;;;;;;5.16;85.93;99657.28;5073772;28;20059;-75
2024/01/25 04:39:01;;;;;;;25.38;6.63;;;;;;;5.23;86.50;99640.44;5075341;28;20037;-75
2024/01/25 04:41:26;;;;;;;31.65;7.13;;;;;;;5.23;86.82;99648.38;5082656;28;20033;-75
2024/01/25 04:43:52;;;;;;;26.92;7.30;;;;;;;5.23;87.44;99647.56;5062744;28;20025;-75
2024/01/25 04:46:17;;;;;;;33.85;7.45;;;;;;;5.18;86.29;99642.84;5083652;28;20036;-74
2024/01/25 04:48:43;;;;;;;31.98;7.00;;;;;;;5.19;86.61;99647.13;5070594;28;20432;-75
2024/01/25 04:51:15;;;;;;;29.05;5.35;;;;;;;5.15;86.96;99637.13;5063349;28;20443;-75
2024/01/25 04:53:40;;;;;;;25.58;6.22;;;;;;;5.20;87.07;99648.75;5065299;28;20358;-75
2024/01/25 04:56:06;;;;;;;34.05;7.40;;;;;;;5.21;87.40;99650.41;5063378;28;20039;-74
2024/01/25 04:58:31;;;;;;;30.27;7.68;;;;;;;5.25;86.45;99661.41;5058144;28;20047;-74
2024/01/25 05:00:56;;;;;;;23.80;3.92;;;;;;;5.18;86.29;99657.91;5065529;28;20039;-75
2024/01/25 05:03:22;;;;;;;37.55;7.53;;;;;;;5.24;85.91;99646.56;5066668;28;20032;-74
2024/01/25 05:05:47;;;;;;;21.83;6.22;;;;;;;5.04;86.06;99661.47;5064023;28;20032;-74
2024/01/25 05:08:13;;;;;;;26.02;6.50;;;;;;;5.21;86.57;99654.88;5058462;28;20063;-74
2024/01/25 05:10:38;;;;;;;26.20;5.97;;;;;;;5.23;86.74;99656.31;5067319;28;20048;-74
2024/01/25 05:13:04;;;;;;;35.92;7.28;;;;;;;5.22;86.70;99656.53;5063529;28;20119;-74
2024/01/25 05:15:29;;;;;;;30.48;9.05;;;;;;;5.24;86.56;99654.50;5060787;28;20112;-74
2024/01/25 05:17:54;;;;;;;15.43;3.67;;;;;;;5.21;86.15;99658.34;5078428;28;20036;-74
2024/01/25 05:20:20;;;;;;;29.20;6.25;;;;;;;5.19;86.63;99654.25;5071567;28;20473;-75
2024/01/25 05:22:46;;;;;;;26.23;5.82;;;;;;;5.18;86.28;99676.41;5083566;28;20511;-74
2024/01/25 05:25:11;;;;;;;23.95;5.63;;;;;;;5.08;86.23;99676.78;5065126;28;20032;-74
2024/01/25 05:27:37;;;;;;;36.08;7.25;;;;;;;5.15;86.48;99684.75;5058659;28;20036;-74
2024/01/25 05:30:03;;;;;;;27.98;6.15;;;;;;;5.19;86.98;99693.94;5058073;28;20456;-74
2024/01/25 05:32:28;;;;;;;26.60;5.30;;;;;;;5.13;86.45;99707.97;5069864;28;20036;-73
2024/01/25 05:34:54;;;;;;;36.85;6.07;;;;;;;5.07;86.79;99704.22;5060390;28;20028;-74
2024/01/25 05:37:19;;;;;;;28.08;5.13;;;;;;;5.08;86.04;99702.41;5062572;28;20028;-75
2024/01/25 05:39:44;;;;;;;24.25;5.72;;;;;;;5.16;86.77;99712.84;5057589;28;20464;-75
2024/01/25 05:42:10;;;;;;;22.05;5.03;;;;;;;5.12;86.44;99714.25;5057497;28;20066;-74
2024/01/25 05:44:35;;;;;;;21.15;4.93;;;;;;;5.12;86.35;99714.25;5061646;28;20036;-74
2024/01/25 05:47:01;;;;;;;23.08;6.05;;;;;;;5.02;85.61;99708.47;5057675;28;20040;-74
2024/01/25 05:49:26;;;;;;;30.48;5.35;;;;;;;5.05;85.81;99708.06;5055060;28;20031;-74
2024/01/25 05:51:52;;;;;;;24.38;5.47;;;;;;;5.11;86.07;99709.97;5056203;28;20056;-74
2024/01/25 05:54:17;;;;;;;25.02;5.82;;;;;;;5.10;85.39;99706.50;5059758;28;20048;-75
2024/01/25 05:56:42;;;;;;;30.88;5.80;;;;;;;5.13;85.66;99710.59;5058829;28;20111;-75
2024/01/25 05:59:08;;;;;;;33.78;6.10;;;;;;;5.17;86.07;99711.84;5063096;28;20059;-75
2024/01/25 06:01:33;;;;;;;30.38;6.07;;;;;;;5.19;86.31;99713.28;5065669;28;20028;-75
2024/01/25 06:03:58;;;;;;;24.15;5.45;;;;;;;5.15;86.45;99709.41;5069404;28;20059;-75
2024/01/25 06:06:24;;;;;;;22.48;4.93;;;;;;;5.11;85.55;99708.13;5060442;28;20054;-75
2024/01/25 06:08:49;;;;;;;21.08;6.47;;;;;;;5.09;86.21;99710.16;5068072;28;20056;-75
2024/01/25 06:11:15;;;;;;;18.20;5.80;;;;;;;5.10;86.64;99714.44;5069278;28;20029;-75
2024/01/25 06:13:41;;;;;;;27.00;5.78;;;;;;;4.85;86.79;99717.69;5061555;28;20029;-75
2024/01/25 06:16:06;;;;;;;26.70;4.88;;;;;;;5.14;86.62;99723.63;5063376;28;20596;-75
2024/01/25 06:18:31;;;;;;;21.73;4.20;;;;;;;5.11;86.61;99725.84;5060452;28;20544;-75
2024/01/25 06:20:57;;;;;;;26.58;5.85;;;;;;;5.19;86.01;99723.88;5067181;28;20451;-75
2024/01/25 06:23:22;;;;;;;33.47;6.30;;;;;;;5.20;86.23;99736.09;5060710;28;20382;-75
2024/01/25 06:25:47;;;;;;;18.35;4.15;;;;;;;5.11;86.39;99742.53;5067493;28;20481;-75
2024/01/25 06:28:13;;;;;;;24.67;5.15;;;;;;;5.09;86.78;99749.00;5070502;28;20040;-75
2024/01/25 06:30:38;;;;;;;20.40;5.60;;;;;;;5.09;86.51;99746.38;5083776;28;20028;-75
2024/01/25 06:33:04;;;;;;;34.13;7.32;;;;;;;5.01;85.55;99752.63;5069484;28;20036;-75
2024/01/25 06:35:30;;;;;;;24.08;4.78;;;;;;;5.27;86.22;99758.13;5071702;28;20054;-75
2024/01/25 06:37:56;;;;;;;29.15;5.80;;;;;;;5.14;86.38;99763.31;5052904;28;20501;-75
2024/01/25 06:40:21;;;;;;;21.00;4.80;;;;;;;5.22;85.84;99772.97;5052114;28;20044;-75
2024/01/25 06:42:46;;;;;;;32.50;6.22;;;;;;;5.26;86.25;99768.91;5050529;28;20029;-75
2024/01/25 06:45:12;;;;;;;25.95;4.43;;;;;;;5.29;86.46;99776.47;5070036;28;20505;-75
2024/01/25 06:47:37;;;;;;;26.85;6.00;;;;;;;5.17;86.55;99770.06;5071691;28;20493;-75
2024/01/25 06:50:03;;;;;;;18.20;5.50;;;;;;;5.26;85.94;99776.84;5069708;28;20056;-75
2024/01/25 06:52:28;;;;;;;31.40;6.13;;;;;;;5.28;86.24;99772.19;5067143;28;20037;-75
2024/01/25 06:54:53;;;;;;;22.20;5.95;;;;;;;5.24;85.43;99778.88;5070291;28;20504;-75
2024/01/25 06:57:19;;;;;;;23.42;6.00;;;;;;;5.36;85.70;99782.63;5071035;28;20127;-75
2024/01/25 06:59:45;;;;;;;32.50;5.82;;;;;;;5.25;85.42;99785.78;5071679;28;20036;-75
2024/01/25 07:02:11;;;;;;;24.92;5.78;;;;;;;5.29;85.47;99784.41;5072898;28;20033;-75
2024/01/25 07:04:38;;;;;;;24.08;5.43;;;;;;;5.30;85.71;99786.06;5075236;28;20032;-75
2024/01/25 07:07:03;;;;;;;26.17;6.57;;;;;;;5.20;85.40;99804.06;5071901;28;20028;-75
2024/01/25 07:09:29;;;;;;;29.48;6.10;;;;;;;5.28;86.01;99802.13;5079337;28;20035;-75
2024/01/25 07:11:54;;;;;;;31.40;7.22;;;;;;;5.30;86.54;99801.94;5075909;28;20112;-75
2024/01/25 07:14:19;;;;;;;29.63;6.53;;;;;;;5.27;85.92;99807.59;5074730;28;20489;-75
2024/01/25 07:16:45;;;;;;;26.73;5.15;;;;;;;5.31;85.72;99803.56;5073781;28;20032;-75
2024/01/25 07:19:10;;;;;;;32.47;7.90;;;;;;;5.20;85.48;99818.13;5074801;28;20104;-75
2024/01/25 07:21:36;;;;;;;38.28;8.05;;;;;;;5.24;86.09;99823.88;5088923;28;20017;-75
2024/01/25 07:24:04;;;;;;;25.90;5.60;;;;;;;5.36;85.26;99814.41;5073300;28;20044;-75
2024/01/25 07:26:30;;;;;;;33.42;8.13;;;;;;;5.29;85.45;99824.09;5061620;28;20108;-75
2024/01/25 07:28:58;;;;;;;20.92;6.45;;;;;;;5.36;85.81;99832.91;5066765;28;20060;-75
2024/01/25 07:31:25;;;;;;;33.45;6.68;;;;;;;5.42;85.56;99837.44;5062588;28;20041;-75
2024/01/25 07:33:50;;;;;;;24.80;7.30;;;;;;;5.45;85.00;99845.03;5062538;28;20035;-75
2024/01/25 07:36:16;;;;;;;33.28;8.00;;;;;;;5.43;85.19;99843.56;5061879;28;20029;-75
2024/01/25 07:38:42;;;;;;;28.63;7.25;;;;;;;5.32;85.93;99847.56;5064278;28;20036;-75
2024/01/25 07:41:07;;;;;;;24.52;6.40;;;;;;;5.32;85.76;99858.97;5067775;28;20029;-75
2024/01/25 07:43:33;;;;;;;31.52;6.70;;;;;;;5.28;85.53;99857.72;5059520;28;20055;-75
2024/01/25 07:45:58;;;;;;;36.50;7.68;;;;;;;5.23;85.62;99857.44;5061571;28;20036;-74
2024/01/25 07:48:23;;;;;;;32.03;8.38;;;;;;;5.09;86.35;99860.97;5061081;28;20100;-74
2024/01/25 07:50:49;;;;;;;21.85;5.75;;;;;;;5.37;86.00;99876.09;5066798;28;20043;-74
2024/01/25 07:53:16;;;;;;;21.20;5.63;;;;;;;5.41;85.77;99862.28;5065723;28;20085;-74
2024/01/25 07:55:41;;;;;;;30.58;7.25;;;;;;;5.37;85.78;99868.16;5061265;28;20037;-74
2024/01/25 07:58:07;;;;;;;36.55;6.18;;;;;;;5.40;85.75;99873.88;5067106;28;20063;-74
2024/01/25 08:00:32;;;;;;;23.75;6.47;;;;;;;5.37;85.90;99862.88;5071336;28;20035;-74
2024/01/25 08:02:57;;;;;;;23.83;5.68;;;;;;;5.13;86.28;99866.72;5065868;28;20032;-75
2024/01/25 08:05:23;;;;;;;29.50;6.78;;;;;;;5.24;86.27;99871.50;5073011;28;20037;-74
2024/01/25 08:07:49;;;;;;;15.68;5.22;;;;;;;5.33;86.45;99871.19;5067854;28;20033;-75
2024/01/25 08:10:15;;;;;;;30.27;7.18;;;;;;;5.38;86.29;99872.44;5071664;28;20147;-75
2024/01/25 08:12:43;;;;;;;25.55;5.60;;;;;;;5.37;86.62;99873.44;5072389;28;20032;-75
2024/01/25 08:15:09;;;;;;;23.15;6.53;;;;;;;5.31;85.73;99869.72;5071890;28;20028;-74
2024/01/25 08:17:36;;;;;;;20.35;5.63;;;;;;;5.40;85.54;99873.88;5072402;28;20133;-74
2024/01/25 08:20:02;;;;;;;17.63;5.05;;;;;;;5.40;86.46;99870.41;5071913;28;20032;-75
2024/01/25 08:22:28;;;;;;;25.05;5.72;;;;;;;5.35;86.08;99876.31;5071834;28;20548;-75
2024/01/25 08:24:53;;;;;;;13.57;5.47;;;;;;;5.29;85.93;99867.28;5070839;28;20039;-75
2024/01/25 08:27:19;;;;;;;24.30;6.32;;;;;;;5.37;86.51;99871.63;5072242;28;20025;-75
2024/01/25 08:29:45;;;;;;;31.42;8.70;;;;;;;5.39;85.34;99868.78;5069629;28;20063;-75
2024/01/25 08:32:10;;;;;;;22.23;4.97;;;;;;;5.40;85.44;99862.47;5070348;28;20060;-75
2024/01/25 08:34:36;;;;;;;19.35;5.07;;;;;;;5.37;85.10;99876.94;5070350;28;20056;-74
2024/01/25 08:37:02;;;;;;;43.30;6.82;;;;;;;5.37;86.16;99884.03;5063003;28;20112;-75
2024/01/25 08:39:27;;;;;;;23.02;5.30;;;;;;;5.37;85.16;99874.28;5072308;28;20028;-75
2024/01/25 08:41:53;;;;;;;21.80;5.53;;;;;;;5.32;85.89;99880.13;5068971;28;20016;-74
2024/01/25 08:44:19;;;;;;;25.60;5.97;;;;;;;5.41;85.80;99894.06;5069376;28;20028;-74
2024/01/25 08:46:44;;;;;;;24.30;5.68;;;;;;;5.35;85.31;99894.81;5069425;28;20036;-75
2024/01/25 08:49:12;;;;;;;31.90;6.20;;;;;;;5.45;85.45;99890.03;5070769;28;20021;-75
2024/01/25 08:51:37;;;;;;;20.60;5.07;;;;;;;5.45;84.56;99891.84;5070158;28;20029;-75
2024/01/25 08:54:03;;;;;;;24.05;5.28;;;;;;;5.39;85.63;99892.59;5068692;28;20139;-74
2024/01/25 08:56:29;;;;;;;34.15;6.50;;;;;;;5.45;85.38;99902.44;5068418;28;20066;-75
2024/01/25 08:58:54;;;;;;;31.25;7.15;;;;;;;5.30;85.00;99894.56;5068868;28;20083;-74
2024/01/25 09:01:20;;;;;;;29.42;6.03;;;;;;;5.49;85.64;99901.88;5067117;28;20078;-74
2024/01/25 09:03:45;;;;;;;25.73;5.40;;;;;;;5.51;85.00;99899.84;5071786;28;20096;-75
2024/01/25 09:06:10;;;;;;;28.00;7.18;;;;;;;5.53;84.47;99892.53;5070063;28;20037;-75
2024/01/25 09:08:36;;;;;;;26.05;7.07;;;;;;;5.59;84.55;99912.94;5069384;28;20028;-74
2024/01/25 09:11:01;;;;;;;21.67;6.05;;;;;;;5.58;84.50;99913.16;5070696;28;20106;-75
2024/01/25 09:13:27;;;;;;;25.27;6.43;;;;;;;5.57;84.51;99917.63;5065840;28;20095;-75
2024/01/25 09:15:53;;;;;;;19.73;5.60;;;;;;;5.69;84.50;99912.63;5068337;28;20028;-74
2024/01/25 09:18:19;;;;;;;19.13;5.75;;;;;;;5.64;85.03;99915.84;5067123;28;20116;-75
2024/01/25 09:20:47;;;;;;;40.33;8.35;;;;;;;5.57;85.00;99922.13;5053233;28;20378;-74
2024/01/25 09:23:15;;;;;;;25.88;5.28;;;;;;;5.77;83.74;99934.50;5052701;28;20033;-75
2024/01/25 09:25:41;;;;;;;17.75;6.07;;;;;;;5.76;84.12;99929.41;5067464;28;20036;-75
2024/01/25 09:28:06;;;;;;;28.40;7.03;;;;;;;5.83;84.55;99936.38;5069258;28;20092;-75
2024/01/25 09:30:32;;;;;;;20.70;4.90;;;;;;;5.81;84.48;99938.41;5070453;28;20489;-75
2024/01/25 09:32:57;;;;;;;20.95;6.10;;;;;;;5.76;84.51;99932.06;5050305;28;20032;-75
2024/01/25 09:35:23;;;;;;;28.20;7.15;;;;;;;5.77;84.19;99941.63;5068347;28;20495;-75
2024/01/25 09:37:52;;;;;;;33.58;7.53;;;;;;;5.74;84.76;99929.63;5069509;28;20057;-75
2024/01/25 09:40:20;;;;;;;28.88;6.53;;;;;;;5.81;83.94;99927.81;5069504;28;20033;-75
2024/01/25 09:42:47;;;;;;;28.58;6.00;;;;;;;5.82;84.28;99936.59;5070336;28;20020;-75
2024/01/25 09:45:16;;;;;;;26.85;7.15;;;;;;;5.85;83.78;99937.03;5069816;28;20028;-74
2024/01/25 09:47:42;;;;;;;24.70;6.15;;;;;;;5.89;84.44;99946.28;5064004;28;20033;-74
2024/01/25 09:50:08;;;;;;;33.08;6.65;;;;;;;5.88;83.51;99941.16;5067868;28;20161;-75
2024/01/25 09:52:35;;;;;;;23.10;6.03;;;;;;;5.95;82.84;99952.63;5062374;28;20040;-75
2024/01/25 09:55:01;;;;;;;22.35;6.10;;;;;;;6.02;83.58;99951.69;5060800;28;20032;-74
2024/01/25 09:57:30;;;;;;;23.45;6.45;;;;;;;6.00;83.18;99966.94;5069842;28;20508;-75
2024/01/25 09:59:55;;;;;;;27.63;5.57;;;;;;;6.04;82.71;99962.06;5067701;28;20041;-75
2024/01/25 10:02:21;;;;;;;25.73;6.53;;;;;;;6.01;83.19;99950.03;5066251;28;20393;-75
2024/01/25 10:04:51;;;;;;;27.45;7.40;;;;;;;6.01;83.48;99957.16;5068932;28;20481;-75
2024/01/25 10:07:35;;;;;;;30.23;6.15;;;;;;;6.08;82.58;99955.38;5070135;28;20380;-74
2024/01/25 10:10:00;;;;;;;22.30;6.38;;;;;;;6.03;83.07;99973.66;5066739;28;20074;-75
2024/01/25 10:12:26;;;;;;;19.10;5.80;;;;;;;6.03;83.56;99961.25;5069281;28;20496;-75
2024/01/25 10:14:51;;;;;;;19.23;5.88;;;;;;;6.10;82.31;99963.94;5070124;28;20074;-75
2024/01/25 10:17:16;;;;;;;21.25;5.82;;;;;;;6.13;82.79;99963.59;5068849;28;20120;-75
2024/01/25 10:19:45;;;;;;;27.67;8.32;;;;;;;6.15;82.55;99973.97;5070190;28;20028;-75
2024/01/25 10:22:12;;;;;;;23.63;6.70;;;;;;;6.29;82.39;99978.38;5069107;28;20166;-75
2024/01/25 10:24:38;;;;;;;32.67;6.90;;;;;;;6.15;82.22;99971.34;5069801;28;20528;-75
2024/01/25 10:27:04;;;;;;;25.77;6.43;;;;;;;6.38;81.85;99978.03;5070079;28;20065;-75
2024/01/25 10:29:29;;;;;;;39.10;6.47;;;;;;;6.41;81.55;99977.66;5069407;28;20565;-75
2024/01/25 10:31:55;;;;;;;17.55;6.07;;;;;;;6.40;80.97;99968.03;5069119;28;20036;-75
2024/01/25 10:34:21;;;;;;;30.02;6.40;;;;;;;6.36;80.85;99965.97;5070593;28;20029;-75
2024/01/25 10:36:48;;;;;;;33.13;7.28;;;;;;;6.29;80.43;99978.38;5074276;28;20032;-75
2024/01/25 10:39:14;;;;;;;24.73;6.72;;;;;;;6.40;80.48;99962.72;5072950;28;20035;-75
2024/01/25 10:41:41;;;;;;;29.23;7.10;;;;;;;6.44;80.72;99968.50;5074246;28;20504;-75
2024/01/25 10:44:07;;;;;;;30.90;8.73;;;;;;;6.37;80.52;99960.50;5073386;28;20075;-74
2024/01/25 10:46:33;;;;;;;23.85;6.25;;;;;;;6.47;80.21;99974.22;5056040;28;20104;-75
2024/01/25 10:48:59;;;;;;;20.10;5.40;;;;;;;6.39;80.34;99973.53;5072120;28;20086;-75
2024/01/25 10:51:26;;;;;;;24.27;6.15;;;;;;;6.24;81.10;99981.63;5071472;28;20036;-75
2024/01/25 10:53:52;;;;;;;21.25;5.88;;;;;;;6.29;80.66;99970.44;5074103;28;20021;-74
2024/01/25 10:56:18;;;;;;;25.10;6.90;;;;;;;6.40;81.13;99970.69;5073183;28;20440;-75
2024/01/25 10:58:43;;;;;;;22.90;5.60;;;;;;;6.44;80.36;99968.50;5067711;28;20037;-75
2024/01/25 11:01:13;;;;;;;25.27;6.35;;;;;;;6.43;80.41;99966.84;5073623;28;20533;-75
2024/01/25 11:03:40;;;;;;;24.02;6.90;;;;;;;6.46;79.24;99961.16;5072933;28;20497;-75
2024/01/25 11:06:10;;;;;;;27.58;6.28;;;;;;;6.47;79.64;99966.25;5054458;28;20620;-75
2024/01/25 11:08:38;;;;;;;20.70;6.97;;;;;;;6.54;79.73;99967.13;5070989;28;20024;-75
2024/01/25 11:11:07;;;;;;;20.75;6.43;;;;;;;6.57;79.51;99972.06;5066791;28;20249;-74
2024/01/25 11:13:32;;;;;;;43.00;7.43;;;;;;;6.61;79.37;99967.16;5062363;28;20090;-75
2024/01/25 11:15:57;;;;;;;26.33;6.82;;;;;;;6.60;78.94;99973.47;5067124;28;20041;-75
2024/01/25 11:18:26;;;;;;;28.08;6.43;;;;;;;6.64;79.25;99972.88;5064537;28;20029;-75
2024/01/25 11:20:51;;;;;;;30.52;7.13;;;;;;;6.63;79.01;99971.25;5067085;28;20048;-75
2024/01/25 11:23:16;;;;;;;17.55;6.05;;;;;;;6.70;79.53;99973.94;5057411;28;20029;-75
2024/01/25 11:25:48;;;;;;;22.67;6.78;;;;;;;6.72;79.67;99972.75;5067004;28;20089;-75
2024/01/25 11:28:17;;;;;;;25.30;6.82;;;;;;;6.68;80.35;99968.81;5065594;28;20922;-75